sensor_id;sensor_type;location;lat;lon;timestamp;pressure;altitude;pressure_sealevel;temperature;humidity
82474;BME280;72350;53.232;6.556;2024-03-23T00:55:03;100792.72;;;8.26;82.63
82474;BME280;72350;53.232;6.556;2024-03-23T00:57:29;100786.88;;;8.21;82.81
82474;BME280;72350;53.232;6.556;2024-03-23T00:59:56;100783.63;;;8.17;82.55
82474;BME280;72350;53.232;6.556;2024-03-23T01:02:22;100778.44;;;8.14;82.10
82474;BME280;72350;53.232;6.556;2024-03-23T01:04:49;100770.75;;;8.09;82.84
82474;BME280;72350;53.232;6.556;2024-03-23T01:07:15;100763.00;;;8.05;83.00
82474;BME280;72350;53.232;6.556;2024-03-23T01:09:43;100758.03;;;8.08;82.63
82474;BME280;72350;53.232;6.556;2024-03-23T01:12:09;100758.88;;;8.01;82.67
82474;BME280;72350;53.232;6.556;2024-03-23T01:14:36;100760.41;;;7.95;82.75
82474;BME280;72350;53.232;6.556;2024-03-23T01:17:02;100752.03;;;7.97;82.88
82474;BME280;72350;53.232;6.556;2024-03-23T01:19:29;100753.72;;;7.98;83.17
82474;BME280;72350;53.232;6.556;2024-03-23T01:21:56;100751.19;;;8.04;82.69
82474;BME280;72350;53.232;6.556;2024-03-23T01:24:22;100746.84;;;7.94;82.94
82474;BME280;72350;53.232;6.556;2024-03-23T01:26:50;100749.75;;;7.84;82.84
82474;BME280;72350;53.232;6.556;2024-03-23T01:29:16;100749.53;;;7.77;83.59
82474;BME280;72350;53.232;6.556;2024-03-23T01:31:43;100744.75;;;7.79;83.20
82474;BME280;72350;53.232;6.556;2024-03-23T01:34:09;100740.47;;;7.77;83.21
82474;BME280;72350;53.232;6.556;2024-03-23T01:36:36;100737.66;;;7.60;82.73
82474;BME280;72350;53.232;6.556;2024-03-23T01:39:01;100733.03;;;7.61;84.06
82474;BME280;72350;53.232;6.556;2024-03-23T01:41:29;100720.50;;;7.58;83.90
82474;BME280;72350;53.232;6.556;2024-03-23T01:43:57;100722.41;;;7.58;84.52
82474;BME280;72350;53.232;6.556;2024-03-23T01:46:24;100718.78;;;7.57;84.46
82474;BME280;72350;53.232;6.556;2024-03-23T01:48:49;100713.84;;;7.61;84.23
82474;BME280;72350;53.232;6.556;2024-03-23T01:51:17;100714.69;;;7.61;84.42
82474;BME280;72350;53.232;6.556;2024-03-23T01:53:43;100711.44;;;7.58;84.06
82474;BME280;72350;53.232;6.556;2024-03-23T01:56:09;100701.97;;;7.52;84.04
82474;BME280;72350;53.232;6.556;2024-03-23T01:58:35;100697.69;;;7.50;84.80
82474;BME280;72350;53.232;6.556;2024-03-23T02:01:04;100691.00;;;7.52;85.02
82474;BME280;72350;53.232;6.556;2024-03-23T02:03:30;100696.81;;;7.49;84.81
82474;BME280;72350;53.232;6.556;2024-03-23T02:05:57;100693.75;;;7.52;84.43
82474;BME280;72350;53.232;6.556;2024-03-23T02:08:24;100687.94;;;7.47;83.90
82474;BME280;72350;53.232;6.556;2024-03-23T02:10:51;100689.47;;;7.50;84.30
82474;BME280;72350;53.232;6.556;2024-03-23T02:13:18;100680.56;;;7.48;84.36
82474;BME280;72350;53.232;6.556;2024-03-23T02:15:45;100676.28;;;7.45;84.07
82474;BME280;72350;53.232;6.556;2024-03-23T02:18:12;100677.63;;;7.41;84.21
82474;BME280;72350;53.232;6.556;2024-03-23T02:20:39;100670.78;;;7.37;84.15
82474;BME280;72350;53.232;6.556;2024-03-23T02:23:12;100663.09;;;7.49;84.91
82474;BME280;72350;53.232;6.556;2024-03-23T02:25:39;100662.41;;;7.47;85.07
82474;BME280;72350;53.232;6.556;2024-03-23T02:28:05;100664.97;;;7.48;83.25
82474;BME280;72350;53.232;6.556;2024-03-23T02:30:32;100663.44;;;7.46;83.36
82474;BME280;72350;53.232;6.556;2024-03-23T02:32:58;100659.31;;;7.50;83.07
82474;BME280;72350;53.232;6.556;2024-03-23T02:35:26;100651.75;;;7.35;82.66
82474;BME280;72350;53.232;6.556;2024-03-23T02:37:52;100655.00;;;7.39;83.57
82474;BME280;72350;53.232;6.556;2024-03-23T02:40:22;100648.50;;;7.32;83.29
82474;BME280;72350;53.232;6.556;2024-03-23T02:42:48;100648.78;;;7.29;82.80
82474;BME280;72350;53.232;6.556;2024-03-23T02:45:16;100655.00;;;7.39;83.36
82474;BME280;72350;53.232;6.556;2024-03-23T02:47:41;100653.75;;;7.25;83.74
82474;BME280;72350;53.232;6.556;2024-03-23T02:50:09;100647.81;;;7.38;83.45
82474;BME280;72350;53.232;6.556;2024-03-23T02:52:35;100656.53;;;7.33;82.93
82474;BME280;72350;53.232;6.556;2024-03-23T02:55:02;100644.72;;;7.33;83.81
82474;BME280;72350;53.232;6.556;2024-03-23T02:57:29;100649.50;;;7.31;82.95
82474;BME280;72350;53.232;6.556;2024-03-23T02:59:57;100635.44;;;7.26;83.57
82474;BME280;72350;53.232;6.556;2024-03-23T03:02:22;100635.44;;;7.26;83.17
82474;BME280;72350;53.232;6.556;2024-03-23T03:04:49;100622.78;;;7.25;82.86
82474;BME280;72350;53.232;6.556;2024-03-23T03:07:15;100621.03;;;7.23;82.67
82474;BME280;72350;53.232;6.556;2024-03-23T03:09:42;100618.81;;;7.19;82.52
82474;BME280;72350;53.232;6.556;2024-03-23T03:12:08;100625.97;;;7.12;83.05
82474;BME280;72350;53.232;6.556;2024-03-23T03:14:36;100627.50;;;7.06;83.26
82474;BME280;72350;53.232;6.556;2024-03-23T03:17:03;100625.28;;;7.10;83.26
82474;BME280;72350;53.232;6.556;2024-03-23T03:19:30;100623.00;;;7.05;83.65
82474;BME280;72350;53.232;6.556;2024-03-23T03:21:56;100620.47;;;7.04;84.08
82474;BME280;72350;53.232;6.556;2024-03-23T03:24:24;100613.91;;;6.96;83.47
82474;BME280;72350;53.232;6.556;2024-03-23T03:26:50;100613.59;;;6.99;82.89
82474;BME280;72350;53.232;6.556;2024-03-23T03:29:17;100611.22;;;7.05;83.10
82474;BME280;72350;53.232;6.556;2024-03-23T03:31:44;100612.03;;;6.97;82.92
82474;BME280;72350;53.232;6.556;2024-03-23T03:34:11;100607.59;;;6.96;83.49
82474;BME280;72350;53.232;6.556;2024-03-23T03:36:37;100604.19;;;7.02;82.97
82474;BME280;72350;53.232;6.556;2024-03-23T03:39:04;100604.28;;;6.92;82.48
82474;BME280;72350;53.232;6.556;2024-03-23T03:41:31;100599.34;;;6.88;82.69
82474;BME280;72350;53.232;6.556;2024-03-23T03:43:58;100599.03;;;6.99;82.46
82474;BME280;72350;53.232;6.556;2024-03-23T03:46:27;100598.81;;;6.92;82.38
82474;BME280;72350;53.232;6.556;2024-03-23T03:48:55;100598.31;;;6.89;82.42
82474;BME280;72350;53.232;6.556;2024-03-23T03:51:39;100587.66;;;6.77;82.58
82474;BME280;72350;53.232;6.556;2024-03-23T03:54:06;100583.34;;;6.75;83.16
82474;BME280;72350;53.232;6.556;2024-03-23T03:56:32;100582.47;;;6.74;83.02
82474;BME280;72350;53.232;6.556;2024-03-23T03:58:59;100579.59;;;6.76;82.50
82474;BME280;72350;53.232;6.556;2024-03-23T04:01:25;100577.38;;;6.79;82.58
82474;BME280;72350;53.232;6.556;2024-03-23T04:03:52;100577.00;;;6.74;82.74
82474;BME280;72350;53.232;6.556;2024-03-23T04:06:22;100568.28;;;6.71;82.74
82474;BME280;72350;53.232;6.556;2024-03-23T04:08:49;100574.25;;;6.74;82.60
82474;BME280;72350;53.232;6.556;2024-03-23T04:11:15;100574.97;;;6.76;82.75
82474;BME280;72350;53.232;6.556;2024-03-23T04:13:42;100568.13;;;6.72;82.25
82474;BME280;72350;53.232;6.556;2024-03-23T04:16:08;100572.53;;;6.65;82.84
82474;BME280;72350;53.232;6.556;2024-03-23T04:18:35;100572.28;;;6.59;83.54
82474;BME280;72350;53.232;6.556;2024-03-23T04:21:01;100576.41;;;6.54;83.48
82474;BME280;72350;53.232;6.556;2024-03-23T04:23:30;100566.81;;;6.59;83.59
82474;BME280;72350;53.232;6.556;2024-03-23T04:26:03;100557.44;;;6.61;82.87
82474;BME280;72350;53.232;6.556;2024-03-23T04:28:30;100554.91;;;6.68;83.00
82474;BME280;72350;53.232;6.556;2024-03-23T04:30:56;100554.09;;;6.75;83.16
82474;BME280;72350;53.232;6.556;2024-03-23T04:33:23;100559.06;;;6.72;83.06
82474;BME280;72350;53.232;6.556;2024-03-23T04:35:49;100558.84;;;6.65;83.03
82474;BME280;72350;53.232;6.556;2024-03-23T04:38:16;100560.38;;;6.68;82.79
82474;BME280;72350;53.232;6.556;2024-03-23T04:40:45;100555.22;;;6.56;83.01
82474;BME280;72350;53.232;6.556;2024-03-23T04:43:20;100562.75;;;6.63;83.97
82474;BME280;72350;53.232;6.556;2024-03-23T04:45:47;100557.78;;;6.58;82.87
82474;BME280;72350;53.232;6.556;2024-03-23T04:48:13;100559.81;;;6.56;82.89
82474;BME280;72350;53.232;6.556;2024-03-23T04:50:40;100561.22;;;6.60;82.63
82474;BME280;72350;53.232;6.556;2024-03-23T04:53:07;100554.03;;;6.59;82.69
82474;BME280;72350;53.232;6.556;2024-03-23T04:55:34;100560.59;;;6.48;82.19
82474;BME280;72350;53.232;6.556;2024-03-23T04:58:02;100551.88;;;6.45;83.73
82474;BME280;72350;53.232;6.556;2024-03-23T05:00:28;100542.00;;;6.52;83.16
82474;BME280;72350;53.232;6.556;2024-03-23T05:02:55;100540.13;;;6.52;83.31
82474;BME280;72350;53.232;6.556;2024-03-23T05:05:21;100531.41;;;6.49;83.14
82474;BME280;72350;53.232;6.556;2024-03-23T05:07:48;100542.72;;;6.54;83.40
82474;BME280;72350;53.232;6.556;2024-03-23T05:10:14;100533.94;;;6.50;82.95
82474;BME280;72350;53.232;6.556;2024-03-23T05:12:42;100529.66;;;6.48;83.32
82474;BME280;72350;53.232;6.556;2024-03-23T05:15:09;100529.28;;;6.43;82.65
82474;BME280;72350;53.232;6.556;2024-03-23T05:17:38;100535.50;;;6.53;82.13
82474;BME280;72350;53.232;6.556;2024-03-23T05:20:04;100535.13;;;6.48;82.24
82474;BME280;72350;53.232;6.556;2024-03-23T05:22:35;100541.09;;;6.43;82.05
82474;BME280;72350;53.232;6.556;2024-03-23T05:25:01;100540.22;;;6.43;81.83
82474;BME280;72350;53.232;6.556;2024-03-23T05:27:31;100530.06;;;6.27;82.57
82474;BME280;72350;53.232;6.556;2024-03-23T05:29:56;100537.25;;;6.28;83.16
82474;BME280;72350;53.232;6.556;2024-03-23T05:32:25;100527.53;;;6.33;82.50
82474;BME280;72350;53.232;6.556;2024-03-23T05:34:51;100530.97;;;6.36;83.27
82474;BME280;72350;53.232;6.556;2024-03-23T05:37:21;100529.28;;;6.43;82.85
82474;BME280;72350;53.232;6.556;2024-03-23T05:39:47;100532.47;;;6.30;83.09
82474;BME280;72350;53.232;6.556;2024-03-23T05:42:15;100531.59;;;6.29;84.81
82474;BME280;72350;53.232;6.556;2024-03-23T05:44:43;100532.31;;;6.31;82.87
82474;BME280;72350;53.232;6.556;2024-03-23T05:47:10;100533.91;;;6.42;82.69
82474;BME280;72350;53.232;6.556;2024-03-23T05:49:37;100533.06;;;6.42;82.70
82474;BME280;72350;53.232;6.556;2024-03-23T05:52:04;100540.28;;;6.51;82.46
82474;BME280;72350;53.232;6.556;2024-03-23T05:54:30;100542.06;;;6.60;82.00
82474;BME280;72350;53.232;6.556;2024-03-23T05:56:58;100526.75;;;6.75;81.82
82474;BME280;72350;53.232;6.556;2024-03-23T05:59:25;100534.81;;;6.85;81.20
82474;BME280;72350;53.232;6.556;2024-03-23T06:01:52;100529.88;;;6.97;82.52
82474;BME280;72350;53.232;6.556;2024-03-23T06:04:19;100543.31;;;7.16;81.43
82474;BME280;72350;53.232;6.556;2024-03-23T06:06:47;100535.63;;;7.28;80.26
82474;BME280;72350;53.232;6.556;2024-03-23T06:09:13;100543.03;;;7.52;80.21
82474;BME280;72350;53.232;6.556;2024-03-23T06:11:39;100541.69;;;7.64;81.17
82474;BME280;72350;53.232;6.556;2024-03-23T06:14:06;100557.13;;;7.74;79.41
82474;BME280;72350;53.232;6.556;2024-03-23T06:16:32;100553.69;;;7.72;78.74
82474;BME280;72350;53.232;6.556;2024-03-23T06:18:59;100541.53;;;7.66;79.51
82474;BME280;72350;53.232;6.556;2024-03-23T06:21:25;100542.03;;;7.45;78.24
82474;BME280;72350;53.232;6.556;2024-03-23T06:23:54;100540.13;;;7.46;78.40
82474;BME280;72350;53.232;6.556;2024-03-23T06:26:21;100539.44;;;7.35;78.62
82474;BME280;72350;53.232;6.556;2024-03-23T06:28:47;100531.53;;;7.24;78.46
82474;BME280;72350;53.232;6.556;2024-03-23T06:31:16;100520.38;;;7.17;79.20
82474;BME280;72350;53.232;6.556;2024-03-23T06:33:43;100525.34;;;7.22;79.65
82474;BME280;72350;53.232;6.556;2024-03-23T06:36:10;100527.06;;;7.31;79.83
82474;BME280;72350;53.232;6.556;2024-03-23T06:38:37;100531.06;;;7.37;79.50
82474;BME280;72350;53.232;6.556;2024-03-23T06:41:05;100525.38;;;7.30;79.62
82474;BME280;72350;53.232;6.556;2024-03-23T06:43:32;100530.16;;;7.36;79.17
82474;BME280;72350;53.232;6.556;2024-03-23T06:45:58;100522.28;;;7.41;78.21
82474;BME280;72350;53.232;6.556;2024-03-23T06:48:25;100525.72;;;7.43;78.30
82474;BME280;72350;53.232;6.556;2024-03-23T06:50:55;100516.16;;;7.56;79.34
82474;BME280;72350;53.232;6.556;2024-03-23T06:53:22;100524.03;;;7.67;78.00
82474;BME280;72350;53.232;6.556;2024-03-23T06:55:50;100519.94;;;7.96;77.60
82474;BME280;72350;53.232;6.556;2024-03-23T06:58:19;100516.31;;;8.28;77.25
82474;BME280;72350;53.232;6.556;2024-03-23T07:00:46;100519.41;;;8.17;76.41
82474;BME280;72350;53.232;6.556;2024-03-23T07:03:13;100525.44;;;8.12;76.62
82474;BME280;72350;53.232;6.556;2024-03-23T07:05:39;100515.97;;;8.06;76.96
82474;BME280;72350;53.232;6.556;2024-03-23T07:08:06;100518.22;;;7.95;77.19
82474;BME280;72350;53.232;6.556;2024-03-23T07:10:32;100514.44;;;8.04;76.97
82474;BME280;72350;53.232;6.556;2024-03-23T07:12:59;100523.53;;;8.21;76.61
82474;BME280;72350;53.232;6.556;2024-03-23T07:15:27;100527.97;;;8.14;76.62
82474;BME280;72350;53.232;6.556;2024-03-23T07:17:53;100527.63;;;8.17;76.25
82474;BME280;72350;53.232;6.556;2024-03-23T07:20:19;100532.44;;;7.98;76.05
82474;BME280;72350;53.232;6.556;2024-03-23T07:22:46;100536.72;;;7.93;77.69
82474;BME280;72350;53.232;6.556;2024-03-23T07:25:13;100528.00;;;7.89;78.85
82474;BME280;72350;53.232;6.556;2024-03-23T07:27:40;100528.53;;;7.76;78.64
82474;BME280;72350;53.232;6.556;2024-03-23T07:30:07;100513.97;;;7.76;78.23
82474;BME280;72350;53.232;6.556;2024-03-23T07:32:36;100514.97;;;7.83;78.37
82474;BME280;72350;53.232;6.556;2024-03-23T07:35:02;100509.94;;;8.36;81.24
82474;BME280;72350;53.232;6.556;2024-03-23T07:37:29;100514.34;;;8.69;77.27
82474;BME280;72350;53.232;6.556;2024-03-23T07:39:55;100500.16;;;8.89;76.02
82474;BME280;72350;53.232;6.556;2024-03-23T07:42:22;100495.53;;;9.21;74.29
82474;BME280;72350;53.232;6.556;2024-03-23T07:44:49;100495.56;;;9.44;73.60
82474;BME280;72350;53.232;6.556;2024-03-23T07:47:16;100485.78;;;9.87;72.79
82474;BME280;72350;53.232;6.556;2024-03-23T07:49:43;100486.28;;;10.05;71.23
82474;BME280;72350;53.232;6.556;2024-03-23T07:52:10;100486.59;;;10.25;69.99
82474;BME280;72350;53.232;6.556;2024-03-23T07:54:36;100484.66;;;10.49;70.85
82474;BME280;72350;53.232;6.556;2024-03-23T07:57:04;100487.88;;;10.67;69.18
82474;BME280;72350;53.232;6.556;2024-03-23T07:59:30;100488.56;;;10.84;68.50
82474;BME280;72350;53.232;6.556;2024-03-23T08:01:57;100500.09;;;11.09;67.28
82474;BME280;72350;53.232;6.556;2024-03-23T08:04:23;100485.63;;;11.44;67.42
82474;BME280;72350;53.232;6.556;2024-03-23T08:06:51;100492.59;;;11.82;70.80
82474;BME280;72350;53.232;6.556;2024-03-23T08:09:17;100498.41;;;11.30;64.27
82474;BME280;72350;53.232;6.556;2024-03-23T08:11:44;100510.94;;;10.81;65.07
82474;BME280;72350;53.232;6.556;2024-03-23T08:14:12;100497.38;;;10.50;70.51
82474;BME280;72350;53.232;6.556;2024-03-23T08:16:39;100501.88;;;10.13;69.43
82474;BME280;72350;53.232;6.556;2024-03-23T08:19:04;100499.13;;;10.13;71.16
82474;BME280;72350;53.232;6.556;2024-03-23T08:21:34;100492.50;;;10.22;70.78
82474;BME280;72350;53.232;6.556;2024-03-23T08:24:01;100496.22;;;10.30;70.77
82474;BME280;72350;53.232;6.556;2024-03-23T08:26:29;100487.72;;;10.69;71.58
82474;BME280;72350;53.232;6.556;2024-03-23T08:28:55;100477.41;;;10.92;69.61
82474;BME280;72350;53.232;6.556;2024-03-23T08:31:22;100480.66;;;11.18;69.70
82474;BME280;72350;53.232;6.556;2024-03-23T08:33:48;100482.69;;;11.45;68.51
82474;BME280;72350;53.232;6.556;2024-03-23T08:36:15;100485.00;;;11.63;67.44
82474;BME280;72350;53.232;6.556;2024-03-23T08:38:42;100472.72;;;11.87;69.68
82474;BME280;72350;53.232;6.556;2024-03-23T08:41:11;100473.66;;;12.01;66.88
82474;BME280;72350;53.232;6.556;2024-03-23T08:43:39;100476.84;;;11.76;67.21
82474;BME280;72350;53.232;6.556;2024-03-23T08:46:06;100476.31;;;11.66;64.73
82474;BME280;72350;53.232;6.556;2024-03-23T08:48:34;100476.50;;;11.43;66.28
82474;BME280;72350;53.232;6.556;2024-03-23T08:51:01;100459.84;;;11.73;67.85
82474;BME280;72350;53.232;6.556;2024-03-23T08:53:29;100457.94;;;11.73;65.60
82474;BME280;72350;53.232;6.556;2024-03-23T08:55:55;100459.25;;;11.99;66.68
82474;BME280;72350;53.232;6.556;2024-03-23T08:58:25;100447.94;;;11.94;65.47
82474;BME280;72350;53.232;6.556;2024-03-23T09:00:51;100445.31;;;11.86;63.19
82474;BME280;72350;53.232;6.556;2024-03-23T09:03:18;100451.00;;;11.84;63.58
82474;BME280;72350;53.232;6.556;2024-03-23T09:05:44;100450.25;;;11.69;65.01
82474;BME280;72350;53.232;6.556;2024-03-23T09:08:11;100437.13;;;11.49;64.96
82474;BME280;72350;53.232;6.556;2024-03-23T09:10:38;100439.00;;;11.49;65.20
82474;BME280;72350;53.232;6.556;2024-03-23T09:13:05;100433.44;;;11.64;65.25
82474;BME280;72350;53.232;6.556;2024-03-23T09:15:34;100433.59;;;11.84;64.25
82474;BME280;72350;53.232;6.556;2024-03-23T09:18:01;100424.25;;;12.06;64.47
82474;BME280;72350;53.232;6.556;2024-03-23T09:20:27;100433.38;;;12.35;62.53
82474;BME280;72350;53.232;6.556;2024-03-23T09:22:54;100434.72;;;12.45;61.81
82474;BME280;72350;53.232;6.556;2024-03-23T09:25:20;100432.75;;;12.81;63.86
82474;BME280;72350;53.232;6.556;2024-03-23T09:27:47;100428.28;;;12.80;58.00
82474;BME280;72350;53.232;6.556;2024-03-23T09:30:14;100434.47;;;12.82;59.67
82474;BME280;72350;53.232;6.556;2024-03-23T09:32:43;100458.38;;;11.98;61.68
82474;BME280;72350;53.232;6.556;2024-03-23T09:35:10;100456.34;;;11.64;64.06
82474;BME280;72350;53.232;6.556;2024-03-23T09:37:38;100461.00;;;11.21;63.87
82474;BME280;72350;53.232;6.556;2024-03-23T09:40:06;100460.63;;;10.87;64.24
82474;BME280;72350;53.232;6.556;2024-03-23T09:42:36;100467.94;;;10.65;67.35
82474;BME280;72350;53.232;6.556;2024-03-23T09:45:03;100455.56;;;10.02;64.18
82474;BME280;72350;53.232;6.556;2024-03-23T09:47:32;100456.88;;;10.06;66.96
82474;BME280;72350;53.232;6.556;2024-03-23T09:50:00;100458.22;;;10.10;66.05
82474;BME280;72350;53.232;6.556;2024-03-23T09:52:28;100466.94;;;9.99;66.26
82474;BME280;72350;53.232;6.556;2024-03-23T09:54:54;100452.91;;;9.71;66.04
82474;BME280;72350;53.232;6.556;2024-03-23T09:57:21;100437.31;;;9.86;69.67
82474;BME280;72350;53.232;6.556;2024-03-23T09:59:47;100449.88;;;9.66;65.96
82474;BME280;72350;53.232;6.556;2024-03-23T10:02:15;100437.34;;;9.63;67.62
82474;BME280;72350;53.232;6.556;2024-03-23T10:04:42;100447.44;;;9.85;65.52
82474;BME280;72350;53.232;6.556;2024-03-23T10:07:15;100429.81;;;10.33;67.00
82474;BME280;72350;53.232;6.556;2024-03-23T10:09:42;100431.84;;;10.75;66.15
82474;BME280;72350;53.232;6.556;2024-03-23T10:12:10;100431.44;;;11.79;69.38
82474;BME280;72350;53.232;6.556;2024-03-23T10:14:36;100417.53;;;11.87;66.44
82474;BME280;72350;53.232;6.556;2024-03-23T10:17:14;100424.00;;;11.79;62.71
82474;BME280;72350;53.232;6.556;2024-03-23T10:19:40;100419.69;;;13.23;69.61
82474;BME280;72350;53.232;6.556;2024-03-23T10:22:09;100416.59;;;12.78;64.77
82474;BME280;72350;53.232;6.556;2024-03-23T10:24:36;100420.69;;;12.95;65.23
82474;BME280;72350;53.232;6.556;2024-03-23T10:27:03;100418.59;;;13.04;62.15
82474;BME280;72350;53.232;6.556;2024-03-23T10:29:29;100413.50;;;13.14;60.86
82474;BME280;72350;53.232;6.556;2024-03-23T10:32:07;100417.69;;;12.90;64.53
82474;BME280;72350;53.232;6.556;2024-03-23T10:34:34;100412.41;;;13.02;66.51
82474;BME280;72350;53.232;6.556;2024-03-23T10:37:02;100411.53;;;12.46;58.96
82474;BME280;72350;53.232;6.556;2024-03-23T10:39:30;100423.38;;;12.34;60.61
82474;BME280;72350;53.232;6.556;2024-03-23T10:42:00;100416.44;;;12.16;66.94
82474;BME280;72350;53.232;6.556;2024-03-23T10:44:29;100418.50;;;12.77;69.77
82474;BME280;72350;53.232;6.556;2024-03-23T10:46:57;100411.19;;;12.56;63.00
82474;BME280;72350;53.232;6.556;2024-03-23T10:49:28;100411.75;;;12.93;62.07
82474;BME280;72350;53.232;6.556;2024-03-23T10:51:59;100418.44;;;13.19;60.83
82474;BME280;72350;53.232;6.556;2024-03-23T10:54:26;100411.81;;;13.20;60.41
82474;BME280;72350;53.232;6.556;2024-03-23T10:56:58;100411.88;;;13.26;60.53
82474;BME280;72350;53.232;6.556;2024-03-23T10:59:27;100416.38;;;13.61;61.88
82474;BME280;72350;53.232;6.556;2024-03-23T11:01:56;100411.28;;;12.83;55.94
82474;BME280;72350;53.232;6.556;2024-03-23T11:04:33;100443.13;;;12.31;62.17
82474;BME280;72350;53.232;6.556;2024-03-23T11:07:00;100454.59;;;12.06;60.62
82474;BME280;72350;53.232;6.556;2024-03-23T11:09:39;100444.16;;;11.80;60.69
82474;BME280;72350;53.232;6.556;2024-03-23T11:12:27;100445.94;;;11.59;62.74
82474;BME280;72350;53.232;6.556;2024-03-23T11:14:57;100445.66;;;11.54;63.25
82474;BME280;72350;53.232;6.556;2024-03-23T11:17:26;100441.69;;;12.07;69.61
82474;BME280;72350;53.232;6.556;2024-03-23T11:19:57;100439.78;;;12.07;62.59
82474;BME280;72350;53.232;6.556;2024-03-23T11:22:41;100425.75;;;12.09;69.19
82474;BME280;72350;53.232;6.556;2024-03-23T11:25:14;100432.16;;;12.44;68.20
82474;BME280;72350;53.232;6.556;2024-03-23T11:27:44;100428.06;;;12.05;60.08
82474;BME280;72350;53.232;6.556;2024-03-23T11:30:13;100441.66;;;11.85;58.93
82474;BME280;72350;53.232;6.556;2024-03-23T11:32:41;100428.56;;;11.87;61.94
82474;BME280;72350;53.232;6.556;2024-03-23T11:35:07;100426.91;;;11.71;62.95
82474;BME280;72350;53.232;6.556;2024-03-23T11:37:36;100427.25;;;11.62;61.19
82474;BME280;72350;53.232;6.556;2024-03-23T11:40:17;100427.09;;;11.70;63.40
82474;BME280;72350;53.232;6.556;2024-03-23T11:42:44;100421.69;;;11.55;63.22
82474;BME280;72350;53.232;6.556;2024-03-23T11:45:11;100419.75;;;11.77;62.99
82474;BME280;72350;53.232;6.556;2024-03-23T11:47:39;100410.47;;;11.85;62.86
82474;BME280;72350;53.232;6.556;2024-03-23T11:50:07;100409.03;;;11.67;64.69
82474;BME280;72350;53.232;6.556;2024-03-23T11:52:34;100412.69;;;11.25;66.13
82474;BME280;72350;53.232;6.556;2024-03-23T11:55:04;100406.84;;;11.34;67.14
82474;BME280;72350;53.232;6.556;2024-03-23T11:57:33;100401.94;;;10.72;63.45
82474;BME280;72350;53.232;6.556;2024-03-23T11:59:59;100413.22;;;10.77;65.25
82474;BME280;72350;53.232;6.556;2024-03-23T12:02:26;100408.59;;;10.63;65.76
82474;BME280;72350;53.232;6.556;2024-03-23T12:04:54;100407.63;;;10.70;66.12
82474;BME280;72350;53.232;6.556;2024-03-23T12:07:21;100406.31;;;10.66;67.25
82474;BME280;72350;53.232;6.556;2024-03-23T12:10:02;100397.50;;;10.56;67.65
82474;BME280;72350;53.232;6.556;2024-03-23T12:12:30;100398.19;;;10.43;68.44
82474;BME280;72350;53.232;6.556;2024-03-23T12:15:03;100416.66;;;10.64;68.17
82474;BME280;72350;53.232;6.556;2024-03-23T12:17:32;100421.41;;;10.56;70.98
82474;BME280;72350;53.232;6.556;2024-03-23T12:19:59;100437.25;;;10.24;69.32
82474;BME280;72350;53.232;6.556;2024-03-23T12:22:26;100446.44;;;9.63;68.92
82474;BME280;72350;53.232;6.556;2024-03-23T12:24:55;100430.19;;;9.54;71.32
82474;BME280;72350;53.232;6.556;2024-03-23T12:27:21;100431.31;;;9.45;76.05
82474;BME280;72350;53.232;6.556;2024-03-23T12:29:48;100406.88;;;10.62;72.48
82474;BME280;72350;53.232;6.556;2024-03-23T12:32:14;100429.00;;;10.09;70.43
82474;BME280;72350;53.232;6.556;2024-03-23T12:34:41;100418.53;;;9.90;71.08
82474;BME280;72350;53.232;6.556;2024-03-23T12:37:09;100414.44;;;9.85;73.00
82474;BME280;72350;53.232;6.556;2024-03-23T12:39:38;100409.09;;;9.69;72.61
82474;BME280;72350;53.232;6.556;2024-03-23T12:42:04;100409.97;;;9.47;70.42
82474;BME280;72350;53.232;6.556;2024-03-23T12:44:31;100404.19;;;9.41;72.55
82474;BME280;72350;53.232;6.556;2024-03-23T12:46:57;100400.75;;;9.62;73.96
82474;BME280;72350;53.232;6.556;2024-03-23T12:49:24;100396.69;;;9.73;74.68
82474;BME280;72350;53.232;6.556;2024-03-23T12:51:54;100398.00;;;9.77;74.31
82474;BME280;72350;53.232;6.556;2024-03-23T12:54:23;100408.41;;;9.52;69.49
82474;BME280;72350;53.232;6.556;2024-03-23T12:56:49;100406.22;;;9.48;72.26
82474;BME280;72350;53.232;6.556;2024-03-23T12:59:16;100402.72;;;9.31;73.10
82474;BME280;72350;53.232;6.556;2024-03-23T13:01:42;100393.44;;;9.70;75.26
82474;BME280;72350;53.232;6.556;2024-03-23T13:04:10;100403.50;;;9.77;71.64
82474;BME280;72350;53.232;6.556;2024-03-23T13:06:36;100396.53;;;9.90;71.51
82474;BME280;72350;53.232;6.556;2024-03-23T13:09:03;100397.56;;;10.03;72.03
82474;BME280;72350;53.232;6.556;2024-03-23T13:11:31;100387.16;;;10.28;73.61
82474;BME280;72350;53.232;6.556;2024-03-23T13:13:58;100393.47;;;10.74;78.14
82474;BME280;72350;53.232;6.556;2024-03-23T13:16:23;100396.22;;;10.74;71.59
82474;BME280;72350;53.232;6.556;2024-03-23T13:18:50;100398.97;;;10.74;70.47
82474;BME280;72350;53.232;6.556;2024-03-23T13:21:17;100400.38;;;10.48;70.05
82474;BME280;72350;53.232;6.556;2024-03-23T13:23:46;100403.13;;;10.48;70.81
82474;BME280;72350;53.232;6.556;2024-03-23T13:26:13;100401.78;;;10.44;70.34
82474;BME280;72350;53.232;6.556;2024-03-23T13:28:41;100401.72;;;10.74;72.40
82474;BME280;72350;53.232;6.556;2024-03-23T13:31:07;100411.03;;;10.73;71.41
82474;BME280;72350;53.232;6.556;2024-03-23T13:33:34;100390.44;;;10.68;66.92
82474;BME280;72350;53.232;6.556;2024-03-23T13:36:00;100400.53;;;10.46;67.50
82474;BME280;72350;53.232;6.556;2024-03-23T13:38:28;100406.13;;;10.53;69.79
82474;BME280;72350;53.232;6.556;2024-03-23T13:40:55;100409.91;;;10.67;70.06
82474;BME280;72350;53.232;6.556;2024-03-23T13:43:23;100407.19;;;10.37;72.32
82474;BME280;72350;53.232;6.556;2024-03-23T13:45:53;100407.75;;;10.62;73.78
82474;BME280;72350;53.232;6.556;2024-03-23T13:48:22;100411.16;;;10.20;71.24
82474;BME280;72350;53.232;6.556;2024-03-23T13:50:56;100397.13;;;10.30;70.62